Time;durP1;ratioP1;P1;durP2;ratioP2;P2;SDS_P1;SDS_P2;PMS_P1;PMS_P2;Temp;Humidity;BMP_temperature;BMP_pressure;BME280_temperature;BME280_humidity;BME280_pressure;Samples;Min_cycle;Max_cycle;Signal;HPM_P1;HPM_P2
2022/12/01 00:01:11;;;;;;;34.37;10.87;;;2.50;97.30;;;;;;5059301;28;20464;-91
2022/12/01 00:03:50;;;;;;;21.27;9.00;;;2.50;97.30;;;;;;5060014;28;20171;-91
2022/12/01 00:06:20;;;;;;;18.40;11.03;;;2.40;97.30;;;;;;5060043;28;20433;-91
2022/12/01 00:11:39;;;;;;;16.90;7.60;;;2.40;97.30;;;;;;5076230;28;20407;-92
2022/12/01 00:14:15;;;;;;;24.67;14.20;;;2.30;97.30;;;;;;5059771;28;20401;-91
2022/12/01 00:16:42;;;;;;;26.43;13.10;;;2.30;97.30;;;;;;5045374;28;20453;-91
2022/12/01 00:19:08;;;;;;;13.10;8.93;;;2.20;97.30;;;;;;5059712;28;20441;-91
2022/12/01 00:21:33;;;;;;;9.70;9.20;;;2.20;97.30;;;;;;5059027;28;20476;-91
2022/12/01 00:23:59;;;;;;;23.77;10.20;;;2.20;97.30;;;;;;5058930;28;20178;-90
2022/12/01 00:26:26;;;;;;;29.70;12.13;;;2.30;97.30;;;;;;5059969;28;20199;-92
2022/12/01 00:28:54;;;;;;;30.07;8.67;;;2.30;97.30;;;;;;5059473;28;20207;-91
2022/12/01 00:31:20;;;;;;;20.90;11.83;;;2.30;97.30;;;;;;5058584;28;20439;-90
2022/12/01 00:33:45;;;;;;;15.83;9.97;;;2.30;97.30;;;;;;5046881;28;20409;-91
2022/12/01 00:36:11;;;;;;;36.70;14.03;;;2.30;97.30;;;;;;5064155;28;21147;-92
2022/12/01 00:38:37;;;;;;;38.00;12.30;;;2.30;97.30;;;;;;5060546;28;20705;-91
2022/12/01 00:41:03;;;;;;;24.60;14.97;;;2.40;97.30;;;;;;5059490;28;20191;-91
2022/12/01 00:43:29;;;;;;;32.13;7.67;;;2.40;97.30;;;;;;5059028;28;20432;-91
2022/12/01 00:45:55;;;;;;;54.17;17.00;;;2.40;97.30;;;;;;5059672;28;20433;-90
2022/12/01 00:48:21;;;;;;;32.10;11.40;;;2.40;97.30;;;;;;5052259;28;20236;-91
2022/12/01 00:50:49;;;;;;;11.70;8.20;;;2.40;97.30;;;;;;5055623;28;20420;-91
2022/12/01 00:53:15;;;;;;;22.10;8.93;;;2.40;97.30;;;;;;5057845;28;20428;-91
2022/12/01 00:55:40;;;;;;;24.70;13.40;;;2.40;97.30;;;;;;5058845;28;20441;-92
2022/12/01 00:58:06;;;;;;;28.37;11.93;;;2.30;97.30;;;;;;5058779;28;20195;-91
2022/12/01 01:00:32;;;;;;;50.50;15.57;;;2.30;97.30;;;;;;5058798;28;20174;-90
2022/12/01 01:02:57;;;;;;;22.70;15.67;;;2.30;97.30;;;;;;5058403;28;20179;-90
2022/12/01 01:05:23;;;;;;;34.53;10.73;;;2.30;97.30;;;;;;5060124;28;20185;-91
2022/12/01 01:07:48;;;;;;;26.73;12.93;;;2.30;97.30;;;;;;5063851;28;20233;-91
2022/12/01 01:10:14;;;;;;;38.50;11.20;;;2.30;97.30;;;;;;5058346;28;20191;-91
2022/12/01 01:12:40;;;;;;;11.57;5.80;;;2.20;97.30;;;;;;5058408;28;20190;-91
2022/12/01 01:15:06;;;;;;;15.53;10.37;;;2.20;97.30;;;;;;5059066;28;20191;-91
2022/12/01 01:17:33;;;;;;;17.93;7.20;;;2.20;97.30;;;;;;5058977;28;20215;-90
2022/12/01 01:20:04;;;;;;;11.63;9.50;;;2.20;97.30;;;;;;5043082;28;20456;-91
2022/12/01 01:22:34;;;;;;;27.77;10.57;;;2.20;97.30;;;;;;5058688;28;20424;-91
2022/12/01 01:25:02;;;;;;;13.63;9.50;;;2.20;97.30;;;;;;5057238;28;20417;-90
2022/12/01 01:27:33;;;;;;;27.60;11.30;;;2.20;97.30;;;;;;5047450;28;20448;-91
2022/12/01 01:29:59;;;;;;;22.50;8.50;;;2.20;97.30;;;;;;5058273;28;20440;-91
2022/12/01 01:32:31;;;;;;;12.90;8.43;;;2.30;97.30;;;;;;5059022;28;20425;-91
2022/12/01 01:35:00;;;;;;;28.23;8.83;;;2.30;97.30;;;;;;5058030;28;20184;-92
2022/12/01 01:37:26;;;;;;;24.30;11.03;;;2.30;97.30;;;;;;5057600;28;20614;-91
2022/12/01 01:39:51;;;;;;;9.67;9.17;;;2.30;97.30;;;;;;5058339;28;20504;-91
2022/12/01 01:42:19;;;;;;;38.17;9.40;;;2.30;97.30;;;;;;5058434;28;20236;-92
2022/12/01 01:44:53;;;;;;;8.63;6.80;;;2.30;97.30;;;;;;5057708;28;20183;-91
2022/12/01 01:47:33;;;;;;;17.03;8.83;;;2.20;97.30;;;;;;5057877;28;20450;-91
2022/12/01 01:50:13;;;;;;;22.37;8.47;;;2.10;97.30;;;;;;5045509;28;20421;-91
2022/12/01 01:53:01;;;;;;;11.23;7.20;;;2.10;97.30;;;;;;5057547;28;20429;-92
2022/12/01 01:55:33;;;;;;;16.03;8.00;;;2.10;97.30;;;;;;5057798;28;20425;-90
2022/12/01 01:58:11;;;;;;;9.03;6.60;;;2.10;97.30;;;;;;5058412;28;20496;-91
2022/12/01 02:00:42;;;;;;;13.47;7.93;;;2.20;97.30;;;;;;5057924;28;20445;-92
2022/12/01 02:03:20;;;;;;;20.53;7.67;;;2.20;97.30;;;;;;5058285;28;20425;-92
2022/12/01 02:06:12;;;;;;;9.00;5.07;;;2.20;97.30;;;;;;5058157;28;20804;-91
2022/12/01 02:08:40;;;;;;;16.13;6.10;;;2.20;97.30;;;;;;5044639;28;20490;-91
2022/12/01 02:11:31;;;;;;;32.67;7.43;;;2.20;97.30;;;;;;5042666;28;20943;-92
2022/12/01 02:14:07;;;;;;;17.07;7.43;;;2.20;97.30;;;;;;5055094;28;20418;-91
2022/12/01 02:16:59;;;;;;;16.60;9.23;;;2.20;97.30;;;;;;5042607;28;20477;-90
2022/12/01 02:20:02;;;;;;;20.50;5.60;;;2.20;97.30;;;;;;5042564;28;20424;-91
2022/12/01 02:22:56;;;;;;;38.53;11.93;;;2.20;97.30;;;;;;5055064;28;20585;-90
2022/12/01 02:25:49;;;;;;;10.13;5.77;;;2.10;97.30;;;;;;5054915;28;20418;-91
2022/12/01 02:28:23;;;;;;;5.00;4.70;;;2.10;97.30;;;;;;5053614;28;20507;-92
2022/12/01 02:31:12;;;;;;;5.57;5.27;;;2.10;97.30;;;;;;5054888;28;20422;-91
2022/12/01 02:33:45;;;;;;;25.23;8.53;;;2.10;97.30;;;;;;5057269;28;20407;-91
2022/12/01 02:36:18;;;;;;;20.93;10.40;;;2.20;97.30;;;;;;5045435;28;20455;-91
2022/12/01 02:38:57;;;;;;;6.57;6.20;;;2.20;97.30;;;;;;5054579;28;20434;-91
2022/12/01 02:41:31;;;;;;;20.07;10.60;;;2.20;97.30;;;;;;5041155;28;20418;-92
2022/12/01 02:44:38;;;;;;;15.27;5.47;;;2.20;97.30;;;;;;5044079;28;20947;-91
2022/12/01 02:47:04;;;;;;;19.93;10.10;;;2.10;97.30;;;;;;4921819;29;20431;-91
2022/12/01 02:49:35;;;;;;;26.10;12.67;;;2.10;97.30;;;;;;4934834;29;20427;-91
2022/12/01 02:52:05;;;;;;;11.53;8.70;;;2.10;97.30;;;;;;5001152;28;20180;-94
2022/12/01 02:54:31;;;;;;;75.37;11.00;;;2.10;97.30;;;;;;5068503;28;20473;-93
2022/12/01 02:56:57;;;;;;;32.73;9.03;;;2.00;97.30;;;;;;5045986;28;20484;-91
2022/12/01 02:59:25;;;;;;;20.33;9.77;;;2.00;97.30;;;;;;5025458;28;20473;-91
2022/12/01 03:02:12;;;;;;;16.50;7.33;;;2.10;97.30;;;;;;5054763;28;20425;-91
2022/12/01 03:05:08;;;;;;;12.43;6.67;;;2.00;97.30;;;;;;5035017;28;20173;-92
2022/12/01 03:07:58;;;;;;;30.07;9.50;;;2.00;97.30;;;;;;5055251;28;20473;-90
2022/12/01 03:10:28;;;;;;;24.23;8.20;;;2.00;97.30;;;;;;5057649;28;20443;-90
2022/12/01 03:13:20;;;;;;;23.03;8.70;;;2.00;97.30;;;;;;5057985;28;20418;-90
2022/12/01 03:16:07;;;;;;;28.20;9.80;;;2.10;97.30;;;;;;5057268;28;20417;-91
2022/12/01 03:18:41;;;;;;;17.20;9.53;;;2.10;97.30;;;;;;5053382;28;20528;-91
2022/12/01 03:21:25;;;;;;;24.13;6.60;;;2.10;97.30;;;;;;5058160;28;21003;-91
2022/12/01 03:23:57;;;;;;;11.80;9.33;;;2.10;97.30;;;;;;5057278;28;20421;-92
2022/12/01 03:26:30;;;;;;;11.30;7.93;;;2.10;97.30;;;;;;5052410;28;21200;-91
2022/12/01 03:29:02;;;;;;;5.80;5.43;;;2.00;97.30;;;;;;5053846;28;20965;-89
2022/12/01 03:31:33;;;;;;;17.33;9.97;;;2.00;97.30;;;;;;5074771;23;20811;-88
2022/12/01 03:34:13;;;;;;;23.47;6.17;;;1.90;97.30;;;;;;5068342;28;20989;-88
2022/12/01 03:36:46;;;;;;;7.30;6.63;;;1.80;97.30;;;;;;5071393;28;20506;-87
2022/12/01 03:39:18;;;;;;;18.70;7.50;;;1.80;97.30;;;;;;5072463;28;20445;-87
2022/12/01 03:41:49;;;;;;;8.37;7.30;;;1.70;97.30;;;;;;5071016;28;20433;-87
2022/12/01 03:44:20;;;;;;;13.70;7.10;;;1.70;97.30;;;;;;5071271;28;20443;-88
2022/12/01 03:47:14;;;;;;;19.83;10.73;;;1.70;97.30;;;;;;5071244;28;20957;-87
2022/12/01 03:49:41;;;;;;;9.37;8.87;;;1.70;97.30;;;;;;5068498;28;20460;-86
2022/12/01 03:52:38;;;;;;;11.67;5.97;;;1.60;97.30;;;;;;5065751;28;20903;-87
2022/12/01 03:55:22;;;;;;;11.77;7.83;;;1.50;97.30;;;;;;5053912;28;20425;-87
2022/12/01 03:58:12;;;;;;;22.80;8.37;;;1.50;97.30;;;;;;5071077;28;20445;-87
2022/12/01 04:00:39;;;;;;;6.73;6.40;;;1.50;97.30;;;;;;5062130;28;20425;-87
2022/12/01 04:03:04;;;;;;;17.10;8.10;;;1.50;97.30;;;;;;5075653;28;20425;-87
2022/12/01 04:05:31;;;;;;;4.03;3.83;;;1.50;97.30;;;;;;5076059;28;20416;-88
2022/12/01 04:07:58;;;;;;;11.83;6.20;;;1.50;97.30;;;;;;5074596;28;20800;-87
2022/12/01 04:10:23;;;;;;;28.77;9.07;;;1.50;97.30;;;;;;5074509;28;20421;-87
2022/12/01 04:12:49;;;;;;;10.00;7.67;;;1.40;97.30;;;;;;5074715;28;20515;-87
2022/12/01 04:15:15;;;;;;;12.60;7.47;;;1.40;97.30;;;;;;5074601;28;20229;-87
2022/12/01 04:17:44;;;;;;;17.77;6.40;;;1.50;97.30;;;;;;5074209;28;20206;-85
2022/12/01 04:20:14;;;;;;;18.73;7.50;;;1.50;97.30;;;;;;5074139;28;20457;-87
2022/12/01 04:22:43;;;;;;;5.90;3.80;;;1.40;97.30;;;;;;5073527;28;21109;-87
2022/12/01 04:25:09;;;;;;;7.13;5.53;;;1.40;97.30;;;;;;5074820;28;20414;-87
2022/12/01 04:27:35;;;;;;;20.67;7.77;;;1.40;97.30;;;;;;5073818;28;20413;-87
2022/12/01 04:30:02;;;;;;;27.03;6.20;;;1.50;97.30;;;;;;5074482;28;20516;-87
2022/12/01 04:32:27;;;;;;;16.90;7.63;;;1.40;97.30;;;;;;5075151;28;20536;-87
2022/12/01 04:34:53;;;;;;;14.07;5.43;;;1.40;97.30;;;;;;5075228;28;20939;-87
2022/12/01 04:37:19;;;;;;;8.83;6.10;;;1.40;97.30;;;;;;5073512;28;20206;-87
2022/12/01 04:39:44;;;;;;;18.20;9.37;;;1.40;97.30;;;;;;5072658;28;20217;-87
2022/12/01 04:42:10;;;;;;;42.67;7.10;;;1.40;97.30;;;;;;5073536;28;20448;-87
2022/12/01 04:44:36;;;;;;;7.00;3.40;;;1.40;97.30;;;;;;5071260;28;20189;-87
2022/12/01 04:47:02;;;;;;;7.40;7.00;;;1.40;97.30;;;;;;5062018;28;20267;-87
2022/12/01 04:49:28;;;;;;;14.53;7.97;;;1.30;97.30;;;;;;5069571;28;20425;-86
2022/12/01 04:51:54;;;;;;;11.73;6.27;;;1.30;97.30;;;;;;5064429;28;20521;-87
2022/12/01 04:54:20;;;;;;;29.17;5.17;;;1.30;97.30;;;;;;5057235;28;20434;-87
2022/12/01 04:56:45;;;;;;;12.00;5.30;;;1.30;97.30;;;;;;5074893;28;20195;-88
2022/12/01 04:59:11;;;;;;;32.80;6.03;;;1.20;97.30;;;;;;5072994;28;20181;-87
2022/12/01 05:01:37;;;;;;;71.83;8.80;;;1.10;97.30;;;;;;5067661;28;20198;-86
2022/12/01 05:04:03;;;;;;;14.90;5.17;;;1.10;97.30;;;;;;5073249;28;20206;-88
2022/12/01 05:06:29;;;;;;;8.70;6.57;;;1.10;97.30;;;;;;5065955;28;20184;-86
2022/12/01 05:08:58;;;;;;;9.53;7.87;;;1.20;97.30;;;;;;5069127;28;20421;-87
2022/12/01 05:11:25;;;;;;;20.23;7.00;;;1.20;97.30;;;;;;5065155;28;20207;-83
2022/12/01 05:13:51;;;;;;;31.03;5.80;;;1.20;97.30;;;;;;5062586;28;20432;-87
2022/12/01 05:16:19;;;;;;;8.60;4.33;;;1.30;97.30;;;;;;5067692;28;20445;-86
2022/12/01 05:18:49;;;;;;;10.23;6.80;;;1.30;97.30;;;;;;5076029;28;20183;-87
2022/12/01 05:21:15;;;;;;;26.93;7.77;;;1.20;97.30;;;;;;5072632;28;20417;-87
2022/12/01 05:23:41;;;;;;;4.50;2.97;;;1.20;97.30;;;;;;5060536;28;20441;-86
2022/12/01 05:26:08;;;;;;;5.40;3.47;;;1.20;97.30;;;;;;5061197;28;20819;-83
2022/12/01 05:28:34;;;;;;;12.33;5.20;;;1.20;97.30;;;;;;5060702;28;20180;-86
2022/12/01 05:31:00;;;;;;;16.93;7.13;;;1.20;97.30;;;;;;5061174;28;20851;-86
2022/12/01 05:33:27;;;;;;;12.93;5.60;;;1.20;97.30;;;;;;5073491;28;20437;-83
2022/12/01 05:35:53;;;;;;;11.47;4.83;;;1.20;97.30;;;;;;5072318;28;20179;-87
2022/12/01 05:38:19;;;;;;;14.73;5.27;;;1.10;97.30;;;;;;5060778;28;20425;-84
2022/12/01 05:40:53;;;;;;;30.13;7.60;;;1.20;97.30;;;;;;5073133;28;20456;-86
2022/12/01 05:43:20;;;;;;;4.80;4.50;;;1.20;97.30;;;;;;5074179;28;20435;-83
2022/12/01 05:45:45;;;;;;;17.20;5.43;;;1.20;97.30;;;;;;5073153;28;20409;-86
2022/12/01 05:48:11;;;;;;;12.47;6.00;;;1.10;97.30;;;;;;5064353;28;20483;-84
2022/12/01 05:50:38;;;;;;;11.17;5.30;;;1.10;97.30;;;;;;5057442;28;20262;-87
2022/12/01 05:53:04;;;;;;;8.33;4.80;;;1.00;97.30;;;;;;5064728;28;20207;-83
2022/12/01 05:55:32;;;;;;;15.13;6.50;;;1.00;97.30;;;;;;5069248;28;20430;-87
2022/12/01 05:57:58;;;;;;;40.63;7.13;;;1.00;97.30;;;;;;5072433;28;20662;-86
2022/12/01 06:00:27;;;;;;;7.80;5.33;;;1.00;97.30;;;;;;5073822;28;20518;-86
2022/12/01 06:02:52;;;;;;;9.80;6.53;;;1.00;97.30;;;;;;5063058;28;20540;-84
2022/12/01 06:05:18;;;;;;;11.03;7.97;;;1.00;97.30;;;;;;5066845;28;20560;-86
2022/12/01 06:07:43;;;;;;;11.63;6.33;;;1.00;97.30;;;;;;5055169;28;20210;-86
2022/12/01 06:10:09;;;;;;;6.87;6.00;;;1.00;97.30;;;;;;5069951;28;20274;-87
2022/12/01 06:12:36;;;;;;;17.60;6.90;;;1.10;97.30;;;;;;5073079;28;20209;-85
2022/12/01 06:15:02;;;;;;;11.10;7.17;;;1.00;97.30;;;;;;5072952;28;20490;-86
2022/12/01 06:17:28;;;;;;;11.63;6.07;;;1.00;97.30;;;;;;5072572;28;20457;-84
2022/12/01 06:19:54;;;;;;;6.43;3.57;;;1.00;97.30;;;;;;5074110;28;20452;-87
2022/12/01 06:22:19;;;;;;;7.93;3.63;;;1.00;97.30;;;;;;5072663;28;21186;-86
2022/12/01 06:24:45;;;;;;;9.33;6.47;;;1.00;97.30;;;;;;5060346;28;20246;-86
2022/12/01 06:27:10;;;;;;;4.77;4.33;;;1.10;97.30;;;;;;5072446;28;20266;-87
2022/12/01 06:29:36;;;;;;;11.30;6.57;;;1.10;97.30;;;;;;5072985;28;20174;-85
2022/12/01 06:32:01;;;;;;;14.10;6.80;;;1.10;97.30;;;;;;5073010;28;20234;-84
2022/12/01 06:34:27;;;;;;;12.80;8.20;;;1.10;97.30;;;;;;5073846;28;20258;-84
2022/12/01 06:36:52;;;;;;;5.57;3.77;;;1.10;97.30;;;;;;5075635;28;20203;-86
2022/12/01 06:39:18;;;;;;;12.07;4.40;;;1.10;97.30;;;;;;5074173;28;20175;-83
2022/12/01 06:41:43;;;;;;;13.13;7.80;;;1.10;97.30;;;;;;5073554;28;20198;-86
2022/12/01 06:44:09;;;;;;;3.53;3.33;;;1.10;97.30;;;;;;5059844;28;20171;-85
2022/12/01 06:46:35;;;;;;;8.10;4.73;;;1.10;97.30;;;;;;5073021;28;20186;-84
2022/12/01 06:49:01;;;;;;;19.13;6.00;;;1.10;97.30;;;;;;5068705;28;20430;-86
2022/12/01 06:51:27;;;;;;;15.93;8.13;;;1.10;97.30;;;;;;5068678;28;20237;-86
2022/12/01 06:53:54;;;;;;;4.47;4.17;;;1.00;97.30;;;;;;5067455;28;20194;-86
2022/12/01 06:56:20;;;;;;;10.53;7.20;;;1.00;97.30;;;;;;5068317;28;21025;-87
2022/12/01 06:58:46;;;;;;;20.10;9.80;;;1.00;97.30;;;;;;5066636;28;20401;-86
2022/12/01 07:01:12;;;;;;;29.20;9.00;;;1.00;97.30;;;;;;5065164;28;20430;-86
2022/12/01 07:03:38;;;;;;;8.47;6.17;;;1.00;97.30;;;;;;5070978;28;20421;-85
2022/12/01 07:06:04;;;;;;;9.27;5.50;;;0.90;97.30;;;;;;5070449;28;20175;-84
2022/12/01 07:08:30;;;;;;;6.87;5.80;;;0.90;97.30;;;;;;5068559;28;20452;-86
2022/12/01 07:11:16;;;;;;;5.10;2.90;;;0.90;97.30;;;;;;5070854;28;20847;-87
2022/12/01 07:13:48;;;;;;;6.80;5.77;;;0.90;97.30;;;;;;5065696;28;20411;-85
2022/12/01 07:16:14;;;;;;;11.63;3.87;;;0.90;97.30;;;;;;5062625;28;20539;-83
2022/12/01 07:18:40;;;;;;;10.77;4.17;;;0.90;97.30;;;;;;5068575;28;20437;-83
2022/12/01 07:21:09;;;;;;;22.37;5.93;;;0.90;97.30;;;;;;5062336;28;20457;-85
2022/12/01 07:23:35;;;;;;;8.17;4.80;;;0.90;97.30;;;;;;5070173;28;20436;-85
2022/12/01 07:26:03;;;;;;;29.93;9.03;;;0.90;97.30;;;;;;5070372;28;20418;-85
2022/12/01 07:28:29;;;;;;;6.37;6.00;;;0.90;97.30;;;;;;5067750;28;20469;-85
2022/12/01 07:31:04;;;;;;;20.17;6.47;;;0.90;97.30;;;;;;5068140;28;20473;-86
2022/12/01 07:33:29;;;;;;;26.70;7.93;;;0.90;97.30;;;;;;5066262;28;20269;-83
2022/12/01 07:35:55;;;;;;;18.13;5.17;;;0.90;97.30;;;;;;5066054;28;20506;-85
2022/12/01 07:38:21;;;;;;;35.73;6.17;;;0.90;97.30;;;;;;5065652;28;20225;-83
2022/12/01 07:40:46;;;;;;;19.50;7.13;;;0.80;97.30;;;;;;5071672;28;20174;-85
2022/12/01 07:43:12;;;;;;;8.00;5.63;;;0.80;97.30;;;;;;5076075;28;20199;-85
2022/12/01 07:45:37;;;;;;;9.37;5.27;;;0.80;97.30;;;;;;5068461;28;20251;-83
2022/12/01 07:48:03;;;;;;;4.83;4.53;;;0.70;97.30;;;;;;5070806;28;20179;-83
2022/12/01 07:50:29;;;;;;;8.57;5.30;;;0.70;97.30;;;;;;5075592;28;20175;-85
2022/12/01 07:52:54;;;;;;;4.60;3.97;;;0.70;97.30;;;;;;5069831;28;20687;-86
2022/12/01 07:55:20;;;;;;;10.03;3.83;;;0.70;97.30;;;;;;5070563;28;20182;-85
2022/12/01 07:57:45;;;;;;;7.33;6.93;;;0.70;97.30;;;;;;5075865;28;20199;-85
2022/12/01 08:00:11;;;;;;;16.47;7.97;;;0.70;97.30;;;;;;5072025;28;20583;-83
2022/12/01 08:02:37;;;;;;;5.67;5.27;;;0.70;97.30;;;;;;5070673;28;20551;-83
2022/12/01 08:05:03;;;;;;;8.57;5.50;;;0.70;97.30;;;;;;5071599;28;20503;-86
2022/12/01 08:07:29;;;;;;;7.43;4.87;;;0.70;97.30;;;;;;5069656;28;20536;-87
2022/12/01 08:09:54;;;;;;;7.20;4.33;;;0.70;97.30;;;;;;5069015;28;20594;-87
2022/12/01 08:12:20;;;;;;;6.43;4.73;;;0.70;97.30;;;;;;5073239;28;20753;-87
2022/12/01 08:14:45;;;;;;;4.47;3.70;;;0.70;97.30;;;;;;5075144;28;20190;-87
2022/12/01 08:17:11;;;;;;;5.37;4.53;;;0.70;97.30;;;;;;5074360;28;20210;-87
2022/12/01 08:19:36;;;;;;;4.87;3.70;;;0.70;97.30;;;;;;5065999;28;20184;-87
2022/12/01 08:22:02;;;;;;;26.20;5.10;;;0.70;97.30;;;;;;5071027;28;20215;-87
2022/12/01 08:24:28;;;;;;;12.80;7.87;;;0.70;97.30;;;;;;5070732;28;20171;-85
2022/12/01 08:26:53;;;;;;;6.17;4.40;;;0.70;97.30;;;;;;5071263;28;20429;-87
2022/12/01 08:29:19;;;;;;;9.70;3.73;;;0.70;97.30;;;;;;5063101;28;20175;-87
2022/12/01 08:31:44;;;;;;;5.50;4.50;;;0.70;97.30;;;;;;5062349;28;20729;-87
2022/12/01 08:34:10;;;;;;;9.13;4.17;;;0.70;97.30;;;;;;5071504;28;20182;-88
2022/12/01 08:36:36;;;;;;;7.80;4.33;;;0.70;97.30;;;;;;5070658;28;20222;-87
2022/12/01 08:39:02;;;;;;;8.13;4.90;;;0.70;97.30;;;;;;5074770;28;20590;-87
2022/12/01 08:41:28;;;;;;;7.60;7.03;;;0.70;97.30;;;;;;5074631;28;20437;-87
2022/12/01 08:43:55;;;;;;;9.60;6.20;;;0.70;97.30;;;;;;5075289;28;20420;-88
2022/12/01 08:46:20;;;;;;;14.30;6.43;;;0.70;97.30;;;;;;5074127;28;20214;-88
2022/12/01 08:48:46;;;;;;;25.13;6.37;;;0.80;97.30;;;;;;5073821;28;20444;-87
2022/12/01 08:51:14;;;;;;;4.37;4.07;;;0.80;97.30;;;;;;5073676;28;20457;-87
2022/12/01 08:53:44;;;;;;;22.43;6.40;;;0.80;97.30;;;;;;5073438;28;20187;-87
2022/12/01 08:56:17;;;;;;;11.67;8.30;;;0.80;97.30;;;;;;5061115;28;20465;-87
2022/12/01 08:58:43;;;;;;;10.13;4.97;;;0.80;97.30;;;;;;5057689;28;20446;-87
2022/12/01 09:01:10;;;;;;;32.00;6.50;;;0.80;97.30;;;;;;5066613;28;20420;-87
2022/12/01 09:03:37;;;;;;;20.33;5.60;;;0.80;97.30;;;;;;5073774;28;20179;-87
2022/12/01 09:06:10;;;;;;;4.30;3.90;;;0.80;97.30;;;;;;5070062;28;20417;-86
2022/12/01 09:08:35;;;;;;;8.23;5.50;;;0.80;97.30;;;;;;5070570;28;20463;-87
2022/12/01 09:11:08;;;;;;;7.57;6.17;;;0.80;97.30;;;;;;5075921;28;20845;-87
2022/12/01 09:13:36;;;;;;;7.63;4.50;;;0.80;97.30;;;;;;5074252;28;20417;-87
2022/12/01 09:16:04;;;;;;;19.47;8.07;;;0.80;97.30;;;;;;5082477;28;20489;-87
2022/12/01 09:18:30;;;;;;;19.33;7.77;;;0.90;97.30;;;;;;5073583;28;20592;-87
2022/12/01 09:20:56;;;;;;;37.87;11.83;;;0.80;97.30;;;;;;5073752;28;20947;-86
2022/12/01 09:23:23;;;;;;;6.17;5.50;;;0.80;97.30;;;;;;5070982;28;20416;-87
2022/12/01 09:25:50;;;;;;;11.23;6.10;;;0.90;97.30;;;;;;5066841;28;20954;-86
2022/12/01 09:28:16;;;;;;;8.27;4.70;;;0.90;97.30;;;;;;5066963;28;20540;-87
2022/12/01 09:30:43;;;;;;;7.47;7.07;;;0.90;97.30;;;;;;5072478;28;20479;-87
2022/12/01 09:33:08;;;;;;;31.40;10.13;;;0.80;97.30;;;;;;5062881;28;20551;-87
2022/12/01 09:35:34;;;;;;;13.13;7.70;;;0.90;97.30;;;;;;5080488;28;20516;-87
2022/12/01 09:37:59;;;;;;;9.27;8.50;;;0.90;97.30;;;;;;5072203;28;20211;-87
2022/12/01 09:40:31;;;;;;;8.10;6.30;;;0.90;97.30;;;;;;5071739;28;20255;-87
2022/12/01 09:43:00;;;;;;;14.07;8.50;;;0.90;97.30;;;;;;5072041;28;20199;-87
2022/12/01 09:45:30;;;;;;;10.63;9.47;;;0.90;97.30;;;;;;5062713;28;20505;-87
2022/12/01 09:47:59;;;;;;;11.97;4.60;;;0.90;97.30;;;;;;5067632;28;20425;-87
2022/12/01 09:50:28;;;;;;;6.50;6.13;;;0.90;97.30;;;;;;5067797;28;20421;-87
2022/12/01 09:53:02;;;;;;;14.60;6.50;;;1.00;97.30;;;;;;5066444;28;20450;-86
2022/12/01 09:55:30;;;;;;;10.10;6.80;;;1.00;97.30;;;;;;5071704;28;20928;-87
2022/12/01 09:57:59;;;;;;;11.30;6.07;;;1.00;97.30;;;;;;5058141;28;20461;-86
2022/12/01 10:00:29;;;;;;;10.80;6.60;;;1.00;97.30;;;;;;5066476;28;20855;-87
2022/12/01 10:03:13;;;;;;;17.27;7.00;;;1.00;97.30;;;;;;5072268;28;20433;-87
2022/12/01 10:11:32;;;;;;;7.73;6.07;;;1.10;97.30;;;;;;5050976;28;21200;-88
2022/12/01 10:14:00;;;;;;;11.03;6.00;;;1.00;97.30;;;;;;5036302;28;20421;-88
2022/12/01 10:16:33;;;;;;;19.63;9.43;;;1.00;97.30;;;;;;5053092;28;20454;-88
2022/12/01 10:19:15;;;;;;;6.37;6.00;;;1.00;97.30;;;;;;5033789;28;20935;-88
2022/12/01 10:22:08;;;;;;;16.63;9.93;;;1.00;97.30;;;;;;5034158;28;20452;-88
2022/12/01 10:24:43;;;;;;;14.37;6.63;;;1.10;97.30;;;;;;5029587;28;20421;-87
2022/12/01 10:27:26;;;;;;;9.53;6.20;;;1.10;97.30;;;;;;5035578;28;20846;-87
2022/12/01 10:30:11;;;;;;;19.77;8.27;;;1.10;97.30;;;;;;5031895;28;20935;-89
2022/12/01 10:33:06;;;;;;;2.23;2.03;;;1.10;97.30;;;;;;5034084;28;20406;-89
2022/12/01 10:35:39;;;;;;;12.93;6.33;;;1.20;97.30;;;;;;5024536;28;20420;-89
2022/12/01 10:38:29;;;;;;;11.73;6.43;;;1.20;97.30;;;;;;5038685;28;20474;-89
2022/12/01 10:40:58;;;;;;;10.57;4.63;;;1.20;97.30;;;;;;5035666;28;20476;-89
2022/12/01 10:43:33;;;;;;;11.13;5.37;;;1.20;97.30;;;;;;5033778;28;20456;-89
2022/12/01 10:46:04;;;;;;;17.27;6.40;;;1.20;97.30;;;;;;5027737;28;20417;-88
2022/12/01 10:48:29;;;;;;;11.47;7.93;;;1.20;97.30;;;;;;5034986;28;20783;-89
2022/12/01 10:51:12;;;;;;;13.13;6.90;;;1.20;97.30;;;;;;5031873;28;20436;-88
2022/12/01 10:53:40;;;;;;;12.33;6.67;;;1.30;97.30;;;;;;5028512;28;20584;-89
2022/12/01 10:56:11;;;;;;;20.63;10.47;;;1.30;97.30;;;;;;5042464;28;20479;-90
2022/12/01 10:58:51;;;;;;;14.03;6.53;;;1.30;97.30;;;;;;5042387;28;20420;-90
2022/12/01 11:01:21;;;;;;;24.77;6.40;;;1.20;97.30;;;;;;5035930;28;20410;-89
2022/12/01 11:03:54;;;;;;;17.37;8.10;;;1.30;97.30;;;;;;5037395;28;20417;-91
2022/12/01 11:06:27;;;;;;;42.67;8.93;;;1.30;97.30;;;;;;5037289;28;20681;-89
2022/12/01 11:08:59;;;;;;;11.33;7.57;;;1.30;97.30;;;;;;5033220;28;20454;-90
2022/12/01 11:11:42;;;;;;;10.20;5.80;;;1.20;97.30;;;;;;5033115;28;20453;-89
2022/12/01 11:14:28;;;;;;;11.23;7.27;;;1.20;97.30;;;;;;5032485;28;20937;-89
2022/12/01 11:16:53;;;;;;;15.47;8.27;;;1.20;97.30;;;;;;5038020;28;20959;-89
2022/12/01 11:19:27;;;;;;;23.97;11.00;;;1.30;97.30;;;;;;5035656;28;20418;-89
2022/12/01 11:22:00;;;;;;;29.53;8.10;;;1.30;97.30;;;;;;5032698;28;20175;-89
2022/12/01 11:24:59;;;;;;;15.53;8.10;;;1.30;97.30;;;;;;5034340;28;20415;-88
2022/12/01 11:27:30;;;;;;;33.03;8.10;;;1.30;97.30;;;;;;5032463;28;20488;-88
2022/12/01 11:30:01;;;;;;;15.13;8.10;;;1.30;97.30;;;;;;5034100;28;20415;-90
2022/12/01 11:32:29;;;;;;;22.50;7.70;;;1.30;97.30;;;;;;5033409;28;20864;-89
2022/12/01 11:35:01;;;;;;;20.73;10.13;;;1.40;97.30;;;;;;5034131;28;20415;-89
2022/12/01 11:37:38;;;;;;;21.73;7.83;;;1.40;97.30;;;;;;5033742;28;20461;-89
2022/12/01 11:40:14;;;;;;;10.80;9.03;;;1.40;97.30;;;;;;5032030;28;20866;-89
2022/12/01 11:42:40;;;;;;;18.07;6.07;;;1.40;97.30;;;;;;5034028;28;20924;-89
2022/12/01 11:45:20;;;;;;;9.20;8.00;;;1.30;97.30;;;;;;5033480;28;20421;-89
2022/12/01 11:48:11;;;;;;;27.83;7.20;;;1.30;97.30;;;;;;5034305;28;20426;-89
2022/12/01 11:50:39;;;;;;;9.53;7.90;;;1.30;97.30;;;;;;5043193;28;20415;-89
2022/12/01 11:53:42;;;;;;;39.43;6.90;;;1.30;97.30;;;;;;5049228;28;20720;-90
2022/12/01 11:57:02;;;;;;;21.70;7.10;;;1.30;97.30;;;;;;5054765;28;20421;-90
2022/12/01 11:59:33;;;;;;;16.03;9.77;;;1.20;97.30;;;;;;4981159;28;20414;-89
2022/12/01 12:02:42;;;;;;;13.70;9.30;;;1.20;97.30;;;;;;4953477;28;20422;-89
2022/12/01 12:05:50;;;;;;;10.40;8.23;;;1.20;97.30;;;;;;4969049;28;20461;-89
2022/12/01 12:09:02;;;;;;;14.77;8.43;;;1.30;97.30;;;;;;4995802;28;20443;-90
2022/12/01 12:12:12;;;;;;;12.80;8.00;;;1.30;97.30;;;;;;5001045;28;20953;-89
2022/12/01 12:15:22;;;;;;;9.87;5.63;;;1.30;97.30;;;;;;5014489;28;20837;-89
2022/12/01 12:18:20;;;;;;;23.17;7.83;;;1.40;97.30;;;;;;5008466;28;20539;-88
2022/12/01 12:21:09;;;;;;;21.23;10.30;;;1.40;97.30;;;;;;5007592;28;20458;-88
2022/12/01 12:24:22;;;;;;;29.07;13.30;;;1.30;97.30;;;;;;5014399;28;20438;-88
2022/12/01 12:27:15;;;;;;;20.23;9.57;;;1.40;97.30;;;;;;5008505;28;20424;-89
2022/12/01 12:30:14;;;;;;;9.20;8.70;;;1.40;97.30;;;;;;5015119;28;20511;-90
2022/12/01 12:33:08;;;;;;;8.13;6.97;;;1.40;97.30;;;;;;5015394;28;20415;-90
2022/12/01 12:36:02;;;;;;;29.33;8.23;;;1.40;97.30;;;;;;5015297;28;20408;-88
2022/12/01 12:39:01;;;;;;;36.67;7.63;;;1.40;97.30;;;;;;5003994;28;20476;-88
2022/12/01 12:41:34;;;;;;;11.10;5.87;;;1.30;97.30;;;;;;5013976;28;20453;-88
2022/12/01 12:44:20;;;;;;;11.80;9.87;;;1.30;97.30;;;;;;5013750;28;20427;-89
2022/12/01 12:47:09;;;;;;;24.00;7.50;;;1.30;97.30;;;;;;5014952;28;20972;-89
2022/12/01 12:50:13;;;;;;;29.10;8.50;;;1.30;97.30;;;;;;5017638;28;20419;-89
2022/12/01 12:52:46;;;;;;;17.97;11.90;;;1.30;97.30;;;;;;5017679;28;20463;-90
2022/12/01 12:55:22;;;;;;;6.37;5.47;;;1.40;97.30;;;;;;5031298;28;20482;-91
2022/12/01 12:57:52;;;;;;;19.83;10.50;;;1.40;97.30;;;;;;5033067;28;20467;-90
2022/12/01 13:00:26;;;;;;;9.17;7.57;;;1.40;97.30;;;;;;5033523;28;20421;-90
2022/12/01 13:03:15;;;;;;;9.53;7.00;;;1.40;97.30;;;;;;5033289;28;20415;-89
2022/12/01 13:05:48;;;;;;;22.00;9.10;;;1.50;97.30;;;;;;5032727;28;20400;-91
2022/12/01 13:08:19;;;;;;;17.57;6.63;;;1.50;97.30;;;;;;5033242;28;20428;-89
2022/12/01 13:10:45;;;;;;;8.03;6.87;;;1.50;97.30;;;;;;5032093;28;20531;-91
2022/12/01 13:13:32;;;;;;;11.53;6.20;;;1.60;97.30;;;;;;5032055;28;20420;-89
2022/12/01 13:19:02;;;;;;;20.73;7.07;;;1.60;97.30;;;;;;5140528;23;20493;-89
2022/12/01 13:22:12;;;;;;;10.87;7.80;;;1.60;97.30;;;;;;5051370;28;20272;-89
2022/12/01 13:31:11;;;;;;;12.00;5.13;;;1.50;97.30;;;;;;5060869;28;20481;-89
2022/12/01 13:34:29;;;;;;;11.13;8.37;;;1.50;97.30;;;;;;5055010;28;20417;-89